Time;durP1;ratioP1;P1;durP2;ratioP2;P2;SDS_P1;SDS_P2;PMS_P1;PMS_P2;Temp;Humidity;BMP_temperature;BMP_pressure;BME280_temperature;BME280_humidity;BME280_pressure;Samples;Min_cycle;Max_cycle;Signal;HPM_P1;HPM_P2
2021/01/10 00:00:53;;;;;;;;;;;23.80;21.50;;;;;;491849;240;1165;-68
2021/01/10 00:02:54;;;;;;;;;;;23.80;21.50;;;;;;491805;240;1171;-68
2021/01/10 00:04:56;;;;;;;;;;;23.80;21.50;;;;;;491837;240;973;-68
2021/01/10 00:06:57;;;;;;;;;;;23.90;21.50;;;;;;491867;240;1136;-68
2021/01/10 00:08:58;;;;;;;;;;;23.90;21.50;;;;;;491862;240;1101;-68
2021/01/10 00:10:59;;;;;;;;;;;23.90;21.50;;;;;;491800;240;1049;-68
2021/01/10 00:13:01;;;;;;;;;;;23.80;21.50;;;;;;491835;240;1221;-68
2021/01/10 00:15:02;;;;;;;;;;;23.80;21.50;;;;;;491898;240;1153;-68
2021/01/10 00:17:03;;;;;;;;;;;23.80;21.50;;;;;;491837;240;2141;-68
2021/01/10 00:19:05;;;;;;;;;;;23.80;21.50;;;;;;491853;240;1230;-68
2021/01/10 00:21:06;;;;;;;;;;;23.80;21.50;;;;;;491918;240;1069;-68
2021/01/10 00:23:07;;;;;;;;;;;23.80;21.50;;;;;;491884;240;977;-68
2021/01/10 00:25:08;;;;;;;;;;;23.80;21.50;;;;;;491881;240;1033;-68
2021/01/10 00:27:11;;;;;;;;;;;23.80;21.40;;;;;;491836;240;960;-68
2021/01/10 00:29:11;;;;;;;;;;;23.80;21.40;;;;;;491769;240;1377;-68
2021/01/10 00:31:12;;;;;;;;;;;23.90;21.40;;;;;;491846;240;1180;-68
2021/01/10 00:33:13;;;;;;;;;;;23.80;21.40;;;;;;491873;240;945;-68
2021/01/10 00:35:15;;;;;;;;;;;23.80;21.40;;;;;;491829;240;1113;-68
2021/01/10 00:37:17;;;;;;;;;;;23.80;21.30;;;;;;491846;240;2140;-68
2021/01/10 00:39:18;;;;;;;;;;;23.80;21.30;;;;;;491895;240;989;-68
2021/01/10 00:41:19;;;;;;;;;;;23.80;21.30;;;;;;491857;240;985;-68
2021/01/10 00:43:21;;;;;;;;;;;23.80;21.30;;;;;;491877;240;983;-68
2021/01/10 00:45:22;;;;;;;;;;;23.80;21.30;;;;;;491879;240;1157;-68
2021/01/10 00:47:23;;;;;;;;;;;23.80;21.30;;;;;;491804;240;1200;-68
2021/01/10 00:49:24;;;;;;;;;;;23.90;21.30;;;;;;491798;240;965;-68
2021/01/10 00:51:26;;;;;;;;;;;23.80;21.20;;;;;;491831;240;1109;-68
2021/01/10 00:53:27;;;;;;;;;;;23.80;21.30;;;;;;491797;240;1128;-67
2021/01/10 00:55:29;;;;;;;;;;;23.80;21.20;;;;;;491853;240;938;-67
2021/01/10 00:57:30;;;;;;;;;;;23.80;21.20;;;;;;491810;240;2183;-67
2021/01/10 00:59:31;;;;;;;;;;;23.80;21.20;;;;;;491845;240;948;-68
2021/01/10 01:01:32;;;;;;;;;;;23.80;21.20;;;;;;491810;240;1295;-68
2021/01/10 01:03:33;;;;;;;;;;;23.80;21.20;;;;;;491798;240;1119;-68
2021/01/10 01:05:35;;;;;;;;;;;23.80;21.20;;;;;;491826;240;938;-68
2021/01/10 01:07:36;;;;;;;;;;;23.80;21.20;;;;;;491838;240;1186;-68
2021/01/10 01:09:37;;;;;;;;;;;23.80;21.20;;;;;;491844;240;1097;-68
2021/01/10 01:11:39;;;;;;;;;;;23.80;21.10;;;;;;491761;240;1130;-68
2021/01/10 01:13:40;;;;;;;;;;;23.90;21.10;;;;;;491861;240;990;-68
2021/01/10 01:15:41;;;;;;;;;;;23.90;21.10;;;;;;491759;240;1148;-68
2021/01/10 01:17:42;;;;;;;;;;;23.80;21.10;;;;;;491821;240;2136;-68
2021/01/10 01:19:44;;;;;;;;;;;23.80;21.10;;;;;;491854;240;1094;-68
2021/01/10 01:21:45;;;;;;;;;;;23.80;21.10;;;;;;491698;240;1280;-68
2021/01/10 01:23:46;;;;;;;;;;;23.80;21.10;;;;;;491811;240;1060;-68
2021/01/10 01:25:48;;;;;;;;;;;23.80;21.00;;;;;;491655;240;1313;-68
2021/01/10 01:27:49;;;;;;;;;;;23.80;21.00;;;;;;491792;240;1130;-68
2021/01/10 01:29:50;;;;;;;;;;;23.80;21.00;;;;;;491797;240;1309;-68
2021/01/10 01:31:51;;;;;;;;;;;23.80;21.00;;;;;;491826;240;1120;-68
2021/01/10 01:33:53;;;;;;;;;;;23.80;21.00;;;;;;491832;240;1063;-68
2021/01/10 01:35:54;;;;;;;;;;;23.80;21.00;;;;;;491801;240;968;-68
2021/01/10 01:37:55;;;;;;;;;;;23.80;21.00;;;;;;491773;240;2196;-68
2021/01/10 01:39:56;;;;;;;;;;;23.80;21.00;;;;;;491933;240;925;-68
2021/01/10 01:41:58;;;;;;;;;;;23.80;20.90;;;;;;491883;240;1211;-68
2021/01/10 01:43:59;;;;;;;;;;;23.80;20.90;;;;;;491916;240;1139;-68
2021/01/10 01:46:00;;;;;;;;;;;23.80;20.90;;;;;;491835;240;1111;-68
2021/01/10 01:48:04;;;;;;;;;;;23.80;20.90;;;;;;491925;240;1220;-68
2021/01/10 01:50:03;;;;;;;;;;;23.80;20.90;;;;;;491857;241;1351;-68
2021/01/10 01:52:04;;;;;;;;;;;23.80;20.90;;;;;;491784;240;1310;-68
2021/01/10 01:54:05;;;;;;;;;;;23.80;20.90;;;;;;491836;240;1118;-68
2021/01/10 01:56:07;;;;;;;;;;;23.70;20.90;;;;;;491871;240;965;-68
2021/01/10 01:58:08;;;;;;;;;;;23.80;20.90;;;;;;491821;240;2128;-68
2021/01/10 02:00:09;;;;;;;;;;;23.80;20.90;;;;;;491882;240;1076;-68
2021/01/10 02:02:10;;;;;;;;;;;23.80;20.80;;;;;;491825;240;1148;-68
2021/01/10 02:04:12;;;;;;;;;;;23.70;20.80;;;;;;491948;240;1030;-68
2021/01/10 02:06:13;;;;;;;;;;;23.70;20.80;;;;;;491755;240;1069;-68
2021/01/10 02:08:14;;;;;;;;;;;23.70;20.80;;;;;;491892;240;956;-68
2021/01/10 02:10:16;;;;;;;;;;;23.70;20.80;;;;;;491826;240;1093;-68
2021/01/10 02:12:17;;;;;;;;;;;23.70;20.80;;;;;;491805;240;1119;-68
2021/01/10 02:14:18;;;;;;;;;;;23.70;20.80;;;;;;491898;240;956;-68
2021/01/10 02:16:19;;;;;;;;;;;23.70;20.80;;;;;;491783;240;1167;-68
2021/01/10 02:18:21;;;;;;;;;;;23.70;20.80;;;;;;491806;240;2128;-68
2021/01/10 02:20:22;;;;;;;;;;;23.70;20.80;;;;;;491771;240;1162;-68
2021/01/10 02:22:23;;;;;;;;;;;23.70;20.80;;;;;;491765;240;1122;-68
2021/01/10 02:24:24;;;;;;;;;;;23.70;20.70;;;;;;491909;240;964;-68
2021/01/10 02:26:26;;;;;;;;;;;23.70;20.70;;;;;;491841;240;1080;-68
2021/01/10 02:28:27;;;;;;;;;;;23.70;20.70;;;;;;491788;240;1066;-68
2021/01/10 02:30:28;;;;;;;;;;;23.70;20.70;;;;;;491784;240;1300;-68
2021/01/10 02:32:30;;;;;;;;;;;23.70;20.70;;;;;;491746;240;1151;-68
2021/01/10 02:34:31;;;;;;;;;;;23.70;20.70;;;;;;491910;240;1065;-68
2021/01/10 02:36:32;;;;;;;;;;;23.70;20.70;;;;;;491829;240;1102;-68
2021/01/10 02:38:34;;;;;;;;;;;23.70;20.70;;;;;;491879;240;2180;-68
2021/01/10 02:40:35;;;;;;;;;;;23.60;20.70;;;;;;491844;240;1141;-68
2021/01/10 02:42:36;;;;;;;;;;;23.70;20.70;;;;;;491730;240;1054;-68
2021/01/10 02:44:38;;;;;;;;;;;23.70;20.70;;;;;;491889;240;1152;-68
2021/01/10 02:46:39;;;;;;;;;;;23.70;20.70;;;;;;491757;240;1111;-68
2021/01/10 02:48:40;;;;;;;;;;;23.70;20.70;;;;;;491871;240;981;-68
2021/01/10 02:50:41;;;;;;;;;;;23.60;20.60;;;;;;491654;240;1178;-68
2021/01/10 02:52:44;;;;;;;;;;;23.60;20.60;;;;;;491767;240;1118;-68
2021/01/10 02:54:44;;;;;;;;;;;23.70;20.60;;;;;;491858;242;1345;-68
2021/01/10 02:56:45;;;;;;;;;;;23.60;20.60;;;;;;491759;240;1157;-68
2021/01/10 02:58:46;;;;;;;;;;;23.70;20.60;;;;;;491871;240;2191;-68
2021/01/10 03:00:48;;;;;;;;;;;23.70;20.60;;;;;;491754;240;1217;-68
2021/01/10 03:02:49;;;;;;;;;;;23.60;20.60;;;;;;491852;240;1115;-68
2021/01/10 03:04:50;;;;;;;;;;;23.60;20.60;;;;;;491897;240;952;-68
2021/01/10 03:06:54;;;;;;;;;;;23.60;20.60;;;;;;491699;240;1252;-68
2021/01/10 03:08:53;;;;;;;;;;;23.60;20.60;;;;;;491833;241;1310;-68
2021/01/10 03:10:55;;;;;;;;;;;23.60;20.60;;;;;;491847;240;1167;-68
2021/01/10 03:12:56;;;;;;;;;;;23.60;20.60;;;;;;491764;240;1130;-68
2021/01/10 03:14:57;;;;;;;;;;;23.60;20.60;;;;;;491894;240;1012;-68
2021/01/10 03:16:58;;;;;;;;;;;23.60;20.60;;;;;;491838;240;1158;-68
2021/01/10 03:19:00;;;;;;;;;;;23.60;20.60;;;;;;491849;240;2183;-67
2021/01/10 03:21:01;;;;;;;;;;;23.60;20.60;;;;;;491873;240;1181;-68
2021/01/10 03:23:02;;;;;;;;;;;23.60;20.50;;;;;;491974;240;978;-68
2021/01/10 03:25:03;;;;;;;;;;;23.60;20.60;;;;;;491900;240;1020;-68
2021/01/10 03:27:05;;;;;;;;;;;23.60;20.50;;;;;;491802;240;1188;-68
2021/01/10 03:29:06;;;;;;;;;;;23.60;20.50;;;;;;491847;240;960;-68
2021/01/10 03:31:07;;;;;;;;;;;23.50;20.50;;;;;;491865;240;1193;-68
2021/01/10 03:33:09;;;;;;;;;;;23.50;20.50;;;;;;491881;240;1182;-68
2021/01/10 03:35:12;;;;;;;;;;;23.50;20.50;;;;;;491859;240;1108;-68
2021/01/10 03:37:11;;;;;;;;;;;23.50;20.50;;;;;;491804;241;1469;-68
2021/01/10 03:39:12;;;;;;;;;;;23.50;20.50;;;;;;491818;240;2176;-68
2021/01/10 03:41:14;;;;;;;;;;;23.50;20.50;;;;;;491867;240;1251;-68
2021/01/10 03:43:15;;;;;;;;;;;23.50;20.50;;;;;;491886;240;1201;-68
2021/01/10 03:45:16;;;;;;;;;;;23.50;20.50;;;;;;491869;240;960;-68
2021/01/10 03:47:17;;;;;;;;;;;23.50;20.50;;;;;;491793;240;1158;-68
2021/01/10 03:49:19;;;;;;;;;;;23.50;20.50;;;;;;491788;240;1111;-68
2021/01/10 03:51:20;;;;;;;;;;;23.50;20.50;;;;;;491854;240;1054;-68
2021/01/10 03:53:21;;;;;;;;;;;23.50;20.50;;;;;;491819;240;1314;-68
2021/01/10 03:55:23;;;;;;;;;;;23.50;20.50;;;;;;491815;240;1160;-68
2021/01/10 03:57:24;;;;;;;;;;;23.50;20.50;;;;;;491766;240;1139;-68
2021/01/10 03:59:25;;;;;;;;;;;23.40;20.50;;;;;;491814;240;2172;-68
2021/01/10 04:01:26;;;;;;;;;;;23.50;20.50;;;;;;491826;240;1087;-68
2021/01/10 04:03:28;;;;;;;;;;;23.50;20.50;;;;;;491823;240;1201;-68
2021/01/10 04:05:29;;;;;;;;;;;23.50;20.50;;;;;;491795;240;1238;-68
2021/01/10 04:07:30;;;;;;;;;;;23.50;20.50;;;;;;491825;240;1128;-67
2021/01/10 04:09:32;;;;;;;;;;;23.40;20.50;;;;;;491920;240;924;-67
2021/01/10 04:11:33;;;;;;;;;;;23.40;20.50;;;;;;491822;240;1068;-68
2021/01/10 04:13:34;;;;;;;;;;;23.50;20.60;;;;;;491862;240;961;-68
2021/01/10 04:15:35;;;;;;;;;;;23.50;20.50;;;;;;491891;240;1061;-68
2021/01/10 04:17:37;;;;;;;;;;;23.50;20.60;;;;;;491835;240;1223;-68
2021/01/10 04:19:38;;;;;;;;;;;23.40;20.50;;;;;;491877;240;2172;-68
2021/01/10 04:21:39;;;;;;;;;;;23.40;20.50;;;;;;491910;240;929;-68
2021/01/10 04:23:42;;;;;;;;;;;23.50;20.60;;;;;;491866;240;1022;-68
2021/01/10 04:25:43;;;;;;;;;;;23.40;20.60;;;;;;491878;240;964;-68
2021/01/10 04:27:44;;;;;;;;;;;23.50;20.60;;;;;;491736;240;946;-68
2021/01/10 04:29:46;;;;;;;;;;;23.50;20.60;;;;;;491840;240;1097;-68
2021/01/10 04:31:47;;;;;;;;;;;23.50;20.60;;;;;;491831;240;1113;-68
2021/01/10 04:33:48;;;;;;;;;;;23.40;20.60;;;;;;491846;240;1189;-68
2021/01/10 04:35:49;;;;;;;;;;;23.50;20.60;;;;;;491809;240;1126;-68
2021/01/10 04:37:51;;;;;;;;;;;23.50;20.60;;;;;;491743;240;1195;-68
2021/01/10 04:39:53;;;;;;;;;;;23.50;20.60;;;;;;491794;240;2168;-68
2021/01/10 04:41:53;;;;;;;;;;;23.50;20.60;;;;;;491767;240;1192;-68
2021/01/10 04:43:55;;;;;;;;;;;23.50;20.60;;;;;;491809;240;1068;-68
2021/01/10 04:45:56;;;;;;;;;;;23.40;20.60;;;;;;491919;240;1067;-68
2021/01/10 04:47:57;;;;;;;;;;;23.40;20.50;;;;;;491782;240;1147;-68
2021/01/10 04:49:58;;;;;;;;;;;23.40;20.50;;;;;;491882;240;937;-68
2021/01/10 04:52:00;;;;;;;;;;;23.50;20.50;;;;;;491791;240;1199;-69
2021/01/10 04:54:01;;;;;;;;;;;23.50;20.50;;;;;;491823;240;1065;-68
2021/01/10 04:56:03;;;;;;;;;;;23.50;20.50;;;;;;491856;240;1106;-68
2021/01/10 04:58:04;;;;;;;;;;;23.40;20.50;;;;;;491787;240;2125;-68
2021/01/10 05:00:05;;;;;;;;;;;23.40;20.50;;;;;;491869;240;922;-68
2021/01/10 05:02:07;;;;;;;;;;;23.40;20.40;;;;;;491760;240;1231;-68
2021/01/10 05:04:08;;;;;;;;;;;23.50;20.50;;;;;;491812;240;1137;-68
2021/01/10 05:06:10;;;;;;;;;;;23.50;20.50;;;;;;491787;240;1137;-68
2021/01/10 05:08:11;;;;;;;;;;;23.50;20.50;;;;;;491829;240;1127;-68
2021/01/10 05:10:12;;;;;;;;;;;23.40;20.40;;;;;;491888;240;1169;-68
2021/01/10 05:12:13;;;;;;;;;;;23.40;20.40;;;;;;491817;240;1200;-68
2021/01/10 05:14:15;;;;;;;;;;;23.40;20.40;;;;;;491847;240;1068;-68
2021/01/10 05:16:16;;;;;;;;;;;23.50;20.40;;;;;;491937;240;1399;-68
2021/01/10 05:18:17;;;;;;;;;;;23.50;20.40;;;;;;491820;240;2140;-68
2021/01/10 05:20:18;;;;;;;;;;;23.50;20.40;;;;;;491851;240;943;-68
2021/01/10 05:22:21;;;;;;;;;;;23.50;20.40;;;;;;491822;240;1164;-68
2021/01/10 05:24:22;;;;;;;;;;;23.50;20.40;;;;;;491903;240;1044;-68
2021/01/10 05:26:24;;;;;;;;;;;23.50;20.40;;;;;;491824;240;953;-68
2021/01/10 05:28:26;;;;;;;;;;;23.50;20.40;;;;;;491775;240;1077;-67
2021/01/10 05:30:27;;;;;;;;;;;23.50;20.40;;;;;;491909;240;951;-68
2021/01/10 05:32:28;;;;;;;;;;;23.50;20.40;;;;;;491788;240;1197;-68
2021/01/10 05:34:30;;;;;;;;;;;23.50;20.40;;;;;;491872;240;1305;-68
2021/01/10 05:36:31;;;;;;;;;;;23.50;20.40;;;;;;491750;240;1109;-68
2021/01/10 05:38:32;;;;;;;;;;;23.50;20.40;;;;;;491835;240;2183;-68
2021/01/10 05:40:33;;;;;;;;;;;23.50;20.40;;;;;;491817;240;1111;-68
2021/01/10 05:42:35;;;;;;;;;;;23.50;20.40;;;;;;491773;240;1180;-68
2021/01/10 05:44:37;;;;;;;;;;;23.50;20.40;;;;;;491788;240;1049;-68
2021/01/10 05:46:38;;;;;;;;;;;23.50;20.40;;;;;;491888;240;1164;-68
2021/01/10 05:48:39;;;;;;;;;;;23.40;20.40;;;;;;491890;240;1247;-68
2021/01/10 05:50:41;;;;;;;;;;;23.40;20.40;;;;;;491875;240;1112;-68
2021/01/10 05:52:42;;;;;;;;;;;23.50;20.40;;;;;;491829;240;1165;-68
2021/01/10 05:54:43;;;;;;;;;;;23.50;20.30;;;;;;491915;240;917;-68
2021/01/10 05:56:44;;;;;;;;;;;23.50;20.30;;;;;;491828;240;989;-68
2021/01/10 05:58:46;;;;;;;;;;;23.50;20.40;;;;;;491796;240;2173;-68
2021/01/10 06:00:47;;;;;;;;;;;23.50;20.30;;;;;;491853;240;936;-68
2021/01/10 06:02:48;;;;;;;;;;;23.50;20.40;;;;;;491820;240;938;-68
2021/01/10 06:04:50;;;;;;;;;;;23.40;20.30;;;;;;491890;240;1190;-68
2021/01/10 06:06:51;;;;;;;;;;;23.50;20.30;;;;;;491811;240;1015;-68
2021/01/10 06:08:52;;;;;;;;;;;23.50;20.30;;;;;;491860;240;1057;-68
2021/01/10 06:10:53;;;;;;;;;;;23.50;20.30;;;;;;491840;240;1072;-68
2021/01/10 06:12:55;;;;;;;;;;;23.50;20.30;;;;;;491820;240;975;-68
2021/01/10 06:14:56;;;;;;;;;;;23.50;20.20;;;;;;491830;240;1075;-68
2021/01/10 06:16:57;;;;;;;;;;;23.50;20.30;;;;;;491798;240;1307;-68
2021/01/10 06:18:59;;;;;;;;;;;23.50;20.30;;;;;;491790;240;2179;-68
2021/01/10 06:21:01;;;;;;;;;;;23.40;20.20;;;;;;491853;240;935;-68
2021/01/10 06:23:03;;;;;;;;;;;23.50;20.20;;;;;;491907;240;1109;-68
2021/01/10 06:25:04;;;;;;;;;;;23.40;20.20;;;;;;491863;240;940;-68
2021/01/10 06:27:05;;;;;;;;;;;23.50;20.20;;;;;;491889;240;1002;-68
2021/01/10 06:29:06;;;;;;;;;;;23.50;20.20;;;;;;491846;240;1223;-68
2021/01/10 06:31:08;;;;;;;;;;;23.50;20.20;;;;;;491862;240;977;-68
2021/01/10 06:33:09;;;;;;;;;;;23.50;20.10;;;;;;491880;240;1170;-68
2021/01/10 06:35:10;;;;;;;;;;;23.50;20.10;;;;;;491834;240;1178;-68
2021/01/10 06:37:12;;;;;;;;;;;23.50;20.10;;;;;;491844;240;1155;-68
2021/01/10 06:39:13;;;;;;;;;;;23.50;20.20;;;;;;491833;240;2179;-68
2021/01/10 06:41:14;;;;;;;;;;;23.50;20.10;;;;;;491921;240;1128;-67
2021/01/10 06:43:15;;;;;;;;;;;23.50;20.10;;;;;;491805;240;1024;-68
2021/01/10 06:45:17;;;;;;;;;;;23.50;20.10;;;;;;491826;240;1075;-68
2021/01/10 06:47:18;;;;;;;;;;;23.50;20.10;;;;;;491814;240;993;-68
2021/01/10 06:49:19;;;;;;;;;;;23.50;20.10;;;;;;491882;240;1247;-68
2021/01/10 06:51:20;;;;;;;;;;;23.40;20.00;;;;;;491821;240;1122;-68
2021/01/10 06:53:22;;;;;;;;;;;23.40;20.00;;;;;;491891;240;957;-68
2021/01/10 06:55:23;;;;;;;;;;;23.40;20.00;;;;;;491882;240;1193;-68
2021/01/10 06:57:24;;;;;;;;;;;23.40;20.00;;;;;;491831;240;1180;-68
2021/01/10 06:59:26;;;;;;;;;;;23.40;20.00;;;;;;491829;240;2145;-68
2021/01/10 07:01:28;;;;;;;;;;;23.40;20.00;;;;;;491849;240;1004;-68
2021/01/10 07:03:28;;;;;;;;;;;23.40;20.00;;;;;;491782;240;1479;-68
2021/01/10 07:05:29;;;;;;;;;;;23.40;20.00;;;;;;491766;240;1176;-68
2021/01/10 07:07:31;;;;;;;;;;;23.40;20.00;;;;;;491875;240;1152;-68
2021/01/10 07:09:32;;;;;;;;;;;23.40;20.00;;;;;;491858;240;982;-68
2021/01/10 07:11:33;;;;;;;;;;;23.40;20.00;;;;;;491825;240;1033;-68
2021/01/10 07:13:35;;;;;;;;;;;23.40;20.00;;;;;;491867;240;1075;-68
2021/01/10 07:15:36;;;;;;;;;;;23.40;20.00;;;;;;491835;240;1387;-68
2021/01/10 07:17:37;;;;;;;;;;;23.40;20.00;;;;;;491829;240;1060;-68
2021/01/10 07:19:38;;;;;;;;;;;23.40;20.00;;;;;;491854;240;2179;-68
2021/01/10 07:21:40;;;;;;;;;;;23.40;20.00;;;;;;491762;240;1141;-68
2021/01/10 07:23:41;;;;;;;;;;;23.40;20.00;;;;;;491854;240;984;-68
2021/01/10 07:25:42;;;;;;;;;;;23.40;20.10;;;;;;491855;240;1029;-68
2021/01/10 07:27:43;;;;;;;;;;;23.30;20.00;;;;;;491771;240;1134;-68
2021/01/10 07:29:46;;;;;;;;;;;23.30;20.10;;;;;;492007;240;921;-68
2021/01/10 07:31:48;;;;;;;;;;;23.30;20.10;;;;;;491802;240;1330;-68
2021/01/10 07:33:49;;;;;;;;;;;23.30;20.10;;;;;;491872;240;1120;-68
2021/01/10 07:35:50;;;;;;;;;;;23.30;20.10;;;;;;491794;240;1289;-68
2021/01/10 07:37:56;;;;;;;;;;;23.30;20.10;;;;;;491864;240;1077;-68
2021/01/10 07:39:53;;;;;;;;;;;23.30;20.10;;;;;;491845;241;2177;-68
2021/01/10 07:41:54;;;;;;;;;;;23.30;20.10;;;;;;491737;240;1086;-67
2021/01/10 07:43:55;;;;;;;;;;;23.30;20.10;;;;;;491793;240;1231;-67
2021/01/10 07:45:57;;;;;;;;;;;23.30;20.10;;;;;;491729;240;1141;-67
2021/01/10 07:47:58;;;;;;;;;;;23.30;20.10;;;;;;491841;240;1027;-68
2021/01/10 07:49:59;;;;;;;;;;;23.30;20.10;;;;;;491877;240;1276;-68
2021/01/10 07:52:01;;;;;;;;;;;23.30;20.10;;;;;;491904;240;1116;-68
2021/01/10 07:54:02;;;;;;;;;;;23.30;20.10;;;;;;491898;240;1105;-68
2021/01/10 07:56:03;;;;;;;;;;;23.40;20.10;;;;;;491858;240;973;-68
2021/01/10 07:58:04;;;;;;;;;;;23.30;20.00;;;;;;491822;240;1094;-68
2021/01/10 08:00:06;;;;;;;;;;;23.30;20.10;;;;;;491849;240;2194;-68
2021/01/10 08:02:07;;;;;;;;;;;23.30;20.10;;;;;;491843;240;1104;-68
2021/01/10 08:04:08;;;;;;;;;;;23.40;20.10;;;;;;491941;240;951;-68
2021/01/10 08:06:10;;;;;;;;;;;23.40;20.00;;;;;;491959;240;1213;-68
2021/01/10 08:08:11;;;;;;;;;;;23.40;20.10;;;;;;491875;240;957;-68
2021/01/10 08:10:12;;;;;;;;;;;23.40;20.10;;;;;;491883;240;1120;-68
2021/01/10 08:12:13;;;;;;;;;;;23.40;20.00;;;;;;491821;240;1109;-68
2021/01/10 08:14:15;;;;;;;;;;;23.40;20.10;;;;;;491905;240;952;-68
2021/01/10 08:16:16;;;;;;;;;;;23.40;20.10;;;;;;491806;240;1129;-68
2021/01/10 08:18:17;;;;;;;;;;;23.40;20.10;;;;;;491847;240;1217;-68
2021/01/10 08:20:18;;;;;;;;;;;23.40;20.10;;;;;;491768;240;2145;-68
2021/01/10 08:22:20;;;;;;;;;;;23.40;20.10;;;;;;491770;240;1094;-68
2021/01/10 08:24:21;;;;;;;;;;;23.50;20.10;;;;;;491849;240;941;-68
2021/01/10 08:26:22;;;;;;;;;;;23.50;20.10;;;;;;491664;240;1128;-68
2021/01/10 08:28:23;;;;;;;;;;;23.40;20.10;;;;;;491818;240;941;-68
2021/01/10 08:30:25;;;;;;;;;;;23.40;20.10;;;;;;491739;240;1163;-68
2021/01/10 08:32:26;;;;;;;;;;;23.40;20.10;;;;;;491752;240;1142;-68
2021/01/10 08:34:27;;;;;;;;;;;23.50;20.10;;;;;;491909;240;951;-68
2021/01/10 08:36:29;;;;;;;;;;;23.50;20.10;;;;;;491816;240;1094;-68
2021/01/10 08:38:30;;;;;;;;;;;23.40;20.10;;;;;;491792;240;1179;-68
2021/01/10 08:40:31;;;;;;;;;;;23.50;20.10;;;;;;491801;240;2117;-68
2021/01/10 08:42:32;;;;;;;;;;;23.50;20.10;;;;;;491757;240;1103;-69
2021/01/10 08:44:34;;;;;;;;;;;23.50;20.10;;;;;;491901;240;935;-68
2021/01/10 08:46:35;;;;;;;;;;;23.50;20.10;;;;;;491814;240;1284;-68
2021/01/10 08:48:36;;;;;;;;;;;23.50;20.20;;;;;;491816;240;1087;-68
2021/01/10 08:50:38;;;;;;;;;;;23.40;20.10;;;;;;491793;240;1204;-68
2021/01/10 08:52:41;;;;;;;;;;;23.40;20.20;;;;;;491902;240;1062;-68
2021/01/10 08:54:40;;;;;;;;;;;23.50;20.20;;;;;;491864;241;1490;-68
2021/01/10 08:56:41;;;;;;;;;;;23.40;20.20;;;;;;491858;240;1208;-68
2021/01/10 08:58:43;;;;;;;;;;;23.50;20.20;;;;;;491782;240;1363;-68
2021/01/10 09:00:44;;;;;;;;;;;23.50;20.20;;;;;;491859;240;2137;-68
2021/01/10 09:02:46;;;;;;;;;;;23.50;20.30;;;;;;491871;240;1079;-68
2021/01/10 09:04:47;;;;;;;;;;;23.50;20.20;;;;;;491934;240;1046;-68
2021/01/10 09:06:48;;;;;;;;;;;23.40;20.20;;;;;;491858;240;1283;-68
2021/01/10 09:08:50;;;;;;;;;;;23.50;20.30;;;;;;491887;240;1167;-68
2021/01/10 09:10:51;;;;;;;;;;;23.50;20.30;;;;;;491792;240;1160;-69
2021/01/10 09:12:53;;;;;;;;;;;23.40;20.30;;;;;;491915;240;1084;-68
2021/01/10 09:14:54;;;;;;;;;;;23.50;20.30;;;;;;491852;240;1284;-68
2021/01/10 09:16:56;;;;;;;;;;;23.50;20.30;;;;;;491756;240;1138;-68
2021/01/10 09:18:57;;;;;;;;;;;23.50;20.30;;;;;;491922;240;1068;-68
2021/01/10 09:20:58;;;;;;;;;;;23.50;20.40;;;;;;491759;240;2176;-68
2021/01/10 09:22:59;;;;;;;;;;;23.50;20.30;;;;;;491928;240;944;-68
2021/01/10 09:25:01;;;;;;;;;;;23.60;20.40;;;;;;491852;240;1115;-68
2021/01/10 09:27:02;;;;;;;;;;;23.50;20.30;;;;;;491797;240;1056;-68
2021/01/10 09:29:05;;;;;;;;;;;23.60;20.40;;;;;;491901;240;1121;-68
2021/01/10 09:31:06;;;;;;;;;;;23.60;20.40;;;;;;491771;240;1176;-68
2021/01/10 09:33:07;;;;;;;;;;;23.50;20.40;;;;;;491917;240;1024;-68
2021/01/10 09:35:09;;;;;;;;;;;23.60;20.40;;;;;;491865;240;1154;-68
2021/01/10 09:37:10;;;;;;;;;;;23.50;20.40;;;;;;491761;240;1137;-68
2021/01/10 09:39:11;;;;;;;;;;;23.50;20.40;;;;;;491941;240;1070;-68
2021/01/10 09:41:13;;;;;;;;;;;23.60;20.50;;;;;;491781;240;2128;-68
2021/01/10 09:43:14;;;;;;;;;;;23.60;20.50;;;;;;491934;240;1015;-68
2021/01/10 09:45:15;;;;;;;;;;;23.60;20.50;;;;;;491884;240;1202;-68
2021/01/10 09:47:17;;;;;;;;;;;23.60;20.50;;;;;;491808;240;1113;-68
2021/01/10 09:49:18;;;;;;;;;;;23.60;20.50;;;;;;491945;240;954;-68
2021/01/10 09:51:19;;;;;;;;;;;23.60;20.50;;;;;;491785;240;1332;-68
2021/01/10 09:53:20;;;;;;;;;;;23.60;20.50;;;;;;491870;240;1164;-68
2021/01/10 09:55:25;;;;;;;;;;;23.60;20.60;;;;;;491770;240;1229;-68
2021/01/10 09:57:24;;;;;;;;;;;23.60;20.60;;;;;;491886;240;1431;-68
2021/01/10 09:59:25;;;;;;;;;;;23.60;20.60;;;;;;491976;240;1221;-68
2021/01/10 10:01:27;;;;;;;;;;;23.60;20.60;;;;;;491786;240;2179;-68
2021/01/10 10:03:28;;;;;;;;;;;23.60;20.60;;;;;;491928;240;1093;-68
2021/01/10 10:05:29;;;;;;;;;;;23.60;20.60;;;;;;491843;240;1183;-68
2021/01/10 10:07:30;;;;;;;;;;;23.60;20.70;;;;;;491835;240;1144;-68
2021/01/10 10:09:32;;;;;;;;;;;23.60;20.60;;;;;;491939;240;1247;-68
2021/01/10 10:11:33;;;;;;;;;;;23.60;20.60;;;;;;491918;240;1041;-68
2021/01/10 10:13:34;;;;;;;;;;;23.60;20.70;;;;;;491921;240;1060;-68
2021/01/10 10:15:36;;;;;;;;;;;23.60;20.70;;;;;;491940;240;1106;-68
2021/01/10 10:17:37;;;;;;;;;;;23.60;20.70;;;;;;491879;240;942;-68
2021/01/10 10:19:38;;;;;;;;;;;23.60;20.70;;;;;;491966;240;959;-68
2021/01/10 10:21:39;;;;;;;;;;;23.60;20.70;;;;;;491898;240;2117;-68
2021/01/10 10:23:41;;;;;;;;;;;23.60;20.70;;;;;;491976;240;1074;-68
2021/01/10 10:25:42;;;;;;;;;;;23.60;20.70;;;;;;491981;240;979;-68
2021/01/10 10:27:43;;;;;;;;;;;23.60;20.70;;;;;;491891;240;1177;-68
2021/01/10 10:29:44;;;;;;;;;;;23.60;20.80;;;;;;491954;240;1179;-68
2021/01/10 10:31:46;;;;;;;;;;;23.60;20.80;;;;;;491901;240;973;-68
2021/01/10 10:33:48;;;;;;;;;;;23.60;20.70;;;;;;491922;240;1116;-68
2021/01/10 10:35:48;;;;;;;;;;;23.60;20.80;;;;;;491871;240;1426;-68
2021/01/10 10:37:50;;;;;;;;;;;23.60;20.80;;;;;;491900;240;1225;-68
2021/01/10 10:39:51;;;;;;;;;;;23.60;20.80;;;;;;491952;240;1055;-68
2021/01/10 10:41:53;;;;;;;;;;;23.60;20.80;;;;;;491888;240;2176;-68
2021/01/10 10:43:54;;;;;;;;;;;23.60;20.80;;;;;;491909;240;1065;-68
2021/01/10 10:45:55;;;;;;;;;;;23.60;20.90;;;;;;491908;240;961;-68
2021/01/10 10:47:56;;;;;;;;;;;23.60;20.90;;;;;;491821;240;1198;-68
2021/01/10 10:49:58;;;;;;;;;;;23.60;20.90;;;;;;491951;240;1101;-68
2021/01/10 10:51:59;;;;;;;;;;;23.60;20.90;;;;;;491906;240;977;-68
2021/01/10 10:54:00;;;;;;;;;;;23.60;20.90;;;;;;491876;240;1183;-68
2021/01/10 10:56:01;;;;;;;;;;;23.60;20.90;;;;;;491926;240;938;-68
2021/01/10 10:58:03;;;;;;;;;;;23.60;20.90;;;;;;491966;240;1151;-68
2021/01/10 11:00:04;;;;;;;;;;;23.60;20.90;;;;;;491930;240;2208;-68
2021/01/10 11:02:05;;;;;;;;;;;23.70;20.90;;;;;;491893;240;1224;-68
2021/01/10 11:04:07;;;;;;;;;;;23.60;20.90;;;;;;491959;240;1064;-68
2021/01/10 11:06:08;;;;;;;;;;;23.60;21.00;;;;;;491884;240;1100;-68
2021/01/10 11:08:09;;;;;;;;;;;23.60;20.90;;;;;;491916;240;1327;-68
2021/01/10 11:10:10;;;;;;;;;;;23.60;21.00;;;;;;491910;240;948;-68
2021/01/10 11:12:12;;;;;;;;;;;23.60;21.00;;;;;;491869;240;1170;-68
2021/01/10 11:14:13;;;;;;;;;;;23.60;21.00;;;;;;491892;240;1064;-68
2021/01/10 11:16:14;;;;;;;;;;;23.60;21.00;;;;;;491831;240;1165;-68
2021/01/10 11:18:15;;;;;;;;;;;23.60;21.10;;;;;;491822;240;1100;-68
2021/01/10 11:20:17;;;;;;;;;;;23.50;21.00;;;;;;491904;240;2171;-68
2021/01/10 11:22:18;;;;;;;;;;;23.60;21.10;;;;;;491880;240;1185;-68
2021/01/10 11:24:19;;;;;;;;;;;23.60;21.10;;;;;;491948;240;1186;-68
2021/01/10 11:26:21;;;;;;;;;;;23.60;21.10;;;;;;491880;240;1136;-68
2021/01/10 11:28:22;;;;;;;;;;;23.60;21.10;;;;;;491942;240;931;-68
2021/01/10 11:30:23;;;;;;;;;;;23.70;21.10;;;;;;491952;240;1063;-68
2021/01/10 11:32:25;;;;;;;;;;;23.60;21.10;;;;;;491910;240;953;-68
2021/01/10 11:34:26;;;;;;;;;;;23.70;21.10;;;;;;491961;240;917;-68
2021/01/10 11:36:27;;;;;;;;;;;23.70;21.10;;;;;;491888;240;1117;-68
2021/01/10 11:38:28;;;;;;;;;;;23.70;21.10;;;;;;491916;238;1250;-68
2021/01/10 11:40:30;;;;;;;;;;;23.70;21.10;;;;;;491877;240;2196;-68
2021/01/10 11:42:31;;;;;;;;;;;23.70;21.10;;;;;;491882;240;1192;-68
2021/01/10 11:44:32;;;;;;;;;;;23.70;21.10;;;;;;491916;240;1035;-68
2021/01/10 11:46:33;;;;;;;;;;;23.70;21.10;;;;;;491852;240;1068;-68
2021/01/10 11:48:35;;;;;;;;;;;23.70;21.10;;;;;;491812;240;1134;-68
2021/01/10 11:50:36;;;;;;;;;;;23.80;21.10;;;;;;491884;240;1015;-68
2021/01/10 11:52:37;;;;;;;;;;;23.70;21.10;;;;;;491889;240;1114;-68
2021/01/10 11:54:39;;;;;;;;;;;23.70;21.10;;;;;;491935;240;1144;-68
2021/01/10 11:56:40;;;;;;;;;;;23.80;21.20;;;;;;491870;240;1101;-68
2021/01/10 11:58:41;;;;;;;;;;;23.80;21.10;;;;;;491927;240;1095;-68